Time;durP1;ratioP1;P1;durP2;ratioP2;P2;SDS_P1;SDS_P2;PMS_P1;PMS_P2;Temp;Humidity;BMP_temperature;BMP_pressure;BME280_temperature;BME280_humidity;BME280_pressure;Samples;Min_cycle;Max_cycle;Signal;HPM_P1;HPM_P2
2021/10/24 00:01:06;;;;;;;6.47;4.70;;;;;;;;;;5073944;28;20032;-78
2021/10/24 00:03:32;;;;;;;8.90;5.05;;;;;;;;;;5073892;28;20048;-78
2021/10/24 00:06:03;;;;;;;6.45;4.45;;;;;;;;;;5073668;28;20094;-79
2021/10/24 00:08:30;;;;;;;8.55;4.65;;;;;;;;;;5073726;28;20020;-78
2021/10/24 00:10:56;;;;;;;6.35;4.82;;;;;;;;;;5073620;28;20029;-76
2021/10/24 00:13:22;;;;;;;5.85;4.47;;;;;;;;;;5073628;28;20024;-78
2021/10/24 00:15:48;;;;;;;6.35;4.03;;;;;;;;;;5073540;28;20054;-75
2021/10/24 00:18:15;;;;;;;8.82;5.05;;;;;;;;;;5073394;28;20028;-77
2021/10/24 00:20:43;;;;;;;7.45;5.40;;;;;;;;;;5073395;28;20048;-77
2021/10/24 00:23:12;;;;;;;6.80;4.93;;;;;;;;;;5073354;28;20029;-84
2021/10/24 00:25:41;;;;;;;7.45;4.45;;;;;;;;;;5072271;28;20486;-77
2021/10/24 00:28:09;;;;;;;7.75;5.40;;;;;;;;;;5073448;28;20479;-78
2021/10/24 00:30:36;;;;;;;7.28;4.47;;;;;;;;;;5073505;28;20025;-76
2021/10/24 00:33:08;;;;;;;6.95;5.05;;;;;;;;;;5073491;28;20024;-77
2021/10/24 00:35:37;;;;;;;8.10;4.85;;;;;;;;;;5073337;28;20040;-78
2021/10/24 00:38:04;;;;;;;7.63;4.68;;;;;;;;;;5072174;28;20472;-78
2021/10/24 00:40:30;;;;;;;5.22;4.60;;;;;;;;;;5073245;28;20017;-77
2021/10/24 00:42:56;;;;;;;6.03;4.43;;;;;;;;;;5073412;28;20016;-80
2021/10/24 00:45:26;;;;;;;5.50;3.85;;;;;;;;;;5072664;28;20028;-80
2021/10/24 00:47:53;;;;;;;6.68;4.88;;;;;;;;;;5077583;28;20020;-78
2021/10/24 00:50:19;;;;;;;7.18;4.07;;;;;;;;;;5077388;28;20020;-81
2021/10/24 00:52:46;;;;;;;6.30;4.25;;;;;;;;;;5076125;28;20077;-76
2021/10/24 00:55:12;;;;;;;8.32;4.78;;;;;;;;;;5077344;28;20033;-77
2021/10/24 00:57:39;;;;;;;6.93;4.72;;;;;;;;;;5077255;28;20024;-77
2021/10/24 01:00:07;;;;;;;6.60;4.30;;;;;;;;;;5077156;28;20032;-79
2021/10/24 01:02:34;;;;;;;7.10;5.03;;;;;;;;;;5077498;28;20383;-77
2021/10/24 01:05:00;;;;;;;7.82;5.47;;;;;;;;;;5076952;28;20054;-77
2021/10/24 01:07:26;;;;;;;6.93;5.95;;;;;;;;;;5076985;28;20028;-79
2021/10/24 01:09:53;;;;;;;6.53;4.25;;;;;;;;;;5075772;28;20024;-79
2021/10/24 01:12:19;;;;;;;8.57;4.82;;;;;;;;;;5077117;28;20085;-78
2021/10/24 01:14:45;;;;;;;7.28;4.72;;;;;;;;;;5075737;28;20115;-80
2021/10/24 01:17:11;;;;;;;7.00;4.60;;;;;;;;;;5075639;28;20078;-77
2021/10/24 01:19:37;;;;;;;7.35;5.07;;;;;;;;;;5076803;28;20048;-78
2021/10/24 01:22:04;;;;;;;4.93;4.07;;;;;;;;;;5075531;28;20025;-78
2021/10/24 01:24:30;;;;;;;9.85;5.10;;;;;;;;;;5076663;28;20021;-80
2021/10/24 01:26:59;;;;;;;6.40;4.20;;;;;;;;;;5076718;28;20028;-75
2021/10/24 01:29:25;;;;;;;5.32;4.10;;;;;;;;;;5076734;28;20421;-77
2021/10/24 01:31:52;;;;;;;6.47;4.28;;;;;;;;;;5076518;28;20012;-80
2021/10/24 01:34:18;;;;;;;5.32;3.40;;;;;;;;;;5076544;28;20027;-77
2021/10/24 01:36:45;;;;;;;5.97;4.15;;;;;;;;;;5076835;28;20027;-78
2021/10/24 01:39:11;;;;;;;6.18;3.83;;;;;;;;;;5076394;28;20476;-76
2021/10/24 01:41:37;;;;;;;5.25;4.13;;;;;;;;;;5076432;28;20024;-80
2021/10/24 01:44:03;;;;;;;6.32;3.95;;;;;;;;;;5076235;28;20079;-79
2021/10/24 01:46:29;;;;;;;6.07;3.58;;;;;;;;;;5076260;28;20038;-78
2021/10/24 01:48:55;;;;;;;4.45;3.50;;;;;;;;;;5076366;28;20048;-77
2021/10/24 01:51:22;;;;;;;6.70;3.70;;;;;;;;;;5076335;28;20020;-80
2021/10/24 01:53:48;;;;;;;5.70;4.45;;;;;;;;;;5076161;28;20096;-79
2021/10/24 01:56:15;;;;;;;5.55;3.63;;;;;;;;;;5075889;28;20078;-78
2021/10/24 01:58:42;;;;;;;10.88;4.28;;;;;;;;;;5076176;28;20032;-78
2021/10/24 02:01:09;;;;;;;6.30;4.40;;;;;;;;;;5076078;28;20085;-80
2021/10/24 02:03:37;;;;;;;4.35;3.92;;;;;;;;;;5074789;28;20379;-78
2021/10/24 02:06:04;;;;;;;6.95;4.32;;;;;;;;;;5075857;28;20451;-76
2021/10/24 02:08:30;;;;;;;7.85;4.82;;;;;;;;;;5075940;28;20091;-81
2021/10/24 02:10:56;;;;;;;5.50;4.75;;;;;;;;;;5075939;28;20031;-82
2021/10/24 02:13:25;;;;;;;7.53;4.32;;;;;;;;;;5075917;28;20025;-81
2021/10/24 02:15:51;;;;;;;8.07;5.25;;;;;;;;;;5075806;28;20420;-77
2021/10/24 02:18:17;;;;;;;6.70;3.90;;;;;;;;;;5075731;28;20401;-82
2021/10/24 02:20:43;;;;;;;4.90;3.35;;;;;;;;;;5075613;28;20045;-76
2021/10/24 02:23:10;;;;;;;7.32;5.15;;;;;;;;;;5075902;28;20020;-78
2021/10/24 02:25:38;;;;;;;7.18;4.55;;;;;;;;;;5075650;28;20073;-76
2021/10/24 02:28:04;;;;;;;7.13;5.15;;;;;;;;;;5075569;28;20487;-79
2021/10/24 02:30:31;;;;;;;8.00;5.45;;;;;;;;;;5075654;28;20024;-82
2021/10/24 02:32:57;;;;;;;6.47;4.28;;;;;;;;;;5075363;28;20042;-77
2021/10/24 02:35:25;;;;;;;7.22;4.80;;;;;;;;;;5074397;28;20025;-77
2021/10/24 02:37:52;;;;;;;6.25;4.68;;;;;;;;;;5075403;28;20020;-77
2021/10/24 02:40:25;;;;;;;7.90;5.28;;;;;;;;;;5075308;28;20541;-78
2021/10/24 02:42:55;;;;;;;8.27;4.77;;;;;;;;;;5075240;28;20094;-80
2021/10/24 02:45:21;;;;;;;6.90;5.35;;;;;;;;;;5075369;28;20116;-77
2021/10/24 02:47:47;;;;;;;6.20;4.97;;;;;;;;;;5075253;28;20020;-76
2021/10/24 02:50:14;;;;;;;7.00;5.20;;;;;;;;;;5075253;28;20107;-75
2021/10/24 02:52:42;;;;;;;7.10;5.00;;;;;;;;;;5075155;28;20090;-78
2021/10/24 02:55:11;;;;;;;6.38;5.00;;;;;;;;;;5074980;28;20410;-80
2021/10/24 02:57:37;;;;;;;8.60;5.30;;;;;;;;;;5074928;28;20033;-77
2021/10/24 03:00:17;;;;;;;;;;;;;;;;;;;;;
2021/10/24 03:02:44;;;;;;;7.28;5.25;;;;;;;;;;5075087;28;20020;-77
2021/10/24 03:05:10;;;;;;;7.43;5.30;;;;;;;;;;5074800;28;20467;-78
2021/10/24 03:07:37;;;;;;;5.70;4.72;;;;;;;;;;5074663;28;20099;-76
2021/10/24 03:10:04;;;;;;;4.78;4.07;;;;;;;;;;5074343;28;20070;-78
2021/10/24 03:12:30;;;;;;;6.47;5.20;;;;;;;;;;5074724;28;20031;-77
2021/10/24 03:14:56;;;;;;;7.85;5.07;;;;;;;;;;5073382;28;20035;-83
2021/10/24 03:17:23;;;;;;;7.80;5.25;;;;;;;;;;5073581;28;20051;-77
2021/10/24 03:19:49;;;;;;;8.07;5.82;;;;;;;;;;5072939;28;20098;-76
2021/10/24 03:22:15;;;;;;;5.55;4.07;;;;;;;;;;5074459;28;20100;-77
2021/10/24 03:24:41;;;;;;;7.00;4.53;;;;;;;;;;5073084;28;20464;-78
2021/10/24 03:27:07;;;;;;;5.65;4.93;;;;;;;;;;5074526;28;20464;-78
2021/10/24 03:29:36;;;;;;;5.22;4.72;;;;;;;;;;5074390;28;20017;-80
2021/10/24 03:32:02;;;;;;;6.32;4.40;;;;;;;;;;5074242;28;20032;-78
2021/10/24 03:34:28;;;;;;;6.68;5.13;;;;;;;;;;5074246;28;20025;-80
2021/10/24 03:36:54;;;;;;;5.60;4.70;;;;;;;;;;5074161;28;20107;-76
2021/10/24 03:39:20;;;;;;;5.72;4.55;;;;;;;;;;5074243;28;20103;-80
2021/10/24 03:41:46;;;;;;;6.80;5.35;;;;;;;;;;5072870;28;20108;-79
2021/10/24 03:44:12;;;;;;;6.05;5.15;;;;;;;;;;5074275;28;20106;-79
2021/10/24 03:46:39;;;;;;;7.55;5.35;;;;;;;;;;5074091;28;20104;-78
2021/10/24 03:49:05;;;;;;;7.72;4.95;;;;;;;;;;5074138;28;20099;-81
2021/10/24 03:51:31;;;;;;;7.57;5.10;;;;;;;;;;5072702;28;20492;-77
2021/10/24 03:53:57;;;;;;;7.68;5.68;;;;;;;;;;5073826;28;20356;-78
2021/10/24 03:56:23;;;;;;;6.53;5.40;;;;;;;;;;5073959;28;20090;-78
2021/10/24 03:58:52;;;;;;;9.13;6.78;;;;;;;;;;5073713;28;20043;-77
2021/10/24 04:01:18;;;;;;;7.05;6.03;;;;;;;;;;5072395;28;20031;-79
2021/10/24 04:03:44;;;;;;;7.03;6.15;;;;;;;;;;5073737;28;20059;-79
2021/10/24 04:06:10;;;;;;;7.55;5.93;;;;;;;;;;5073577;28;20364;-81
2021/10/24 04:08:39;;;;;;;7.95;5.63;;;;;;;;;;5073759;28;20024;-78
2021/10/24 04:11:07;;;;;;;9.30;5.78;;;;;;;;;;5073743;28;20020;-77
2021/10/24 04:13:33;;;;;;;8.85;5.40;;;;;;;;;;5073766;28;20020;-76
2021/10/24 04:15:59;;;;;;;7.95;6.20;;;;;;;;;;5073593;28;20025;-77
2021/10/24 04:18:26;;;;;;;8.40;6.65;;;;;;;;;;5073476;28;20082;-77
2021/10/24 04:20:52;;;;;;;7.18;5.82;;;;;;;;;;5073485;28;20112;-80
2021/10/24 04:23:20;;;;;;;8.10;6.55;;;;;;;;;;5073509;28;20395;-76
2021/10/24 04:25:46;;;;;;;8.15;6.70;;;;;;;;;;5073288;28;20067;-79
2021/10/24 04:28:12;;;;;;;11.00;6.88;;;;;;;;;;5073549;28;20050;-80
2021/10/24 04:30:39;;;;;;;8.77;6.75;;;;;;;;;;5072258;28;20387;-79
2021/10/24 04:33:05;;;;;;;9.00;6.88;;;;;;;;;;5073419;28;20099;-76
2021/10/24 04:35:31;;;;;;;9.35;7.00;;;;;;;;;;5073483;28;20053;-80
2021/10/24 04:37:57;;;;;;;8.30;5.93;;;;;;;;;;5072002;28;20032;-80
2021/10/24 04:40:24;;;;;;;11.90;6.65;;;;;;;;;;5072189;28;20029;-79
2021/10/24 04:42:57;;;;;;;10.13;6.35;;;;;;;;;;5073423;28;20021;-81
2021/10/24 04:45:33;;;;;;;7.75;5.63;;;;;;;;;;5073214;28;20020;-78
2021/10/24 04:51:21;;;;;;;;;;;;;;;;;;;;;
2021/10/24 04:53:49;;;;;;;7.90;5.80;;;;;;;;;;5051310;28;20480;-79
2021/10/24 04:56:16;;;;;;;8.25;6.28;;;;;;;;;;5061919;28;20415;-79
2021/10/24 04:58:44;;;;;;;8.90;6.72;;;;;;;;;;5071866;28;20017;-79
2021/10/24 05:01:11;;;;;;;11.50;6.60;;;;;;;;;;5073123;28;20033;-77
2021/10/24 05:03:38;;;;;;;10.30;7.63;;;;;;;;;;5073166;28;20025;-78
2021/10/24 05:06:05;;;;;;;8.90;6.35;;;;;;;;;;5073075;28;20028;-76
2021/10/24 05:08:33;;;;;;;8.52;7.07;;;;;;;;;;5072870;28;20019;-79
2021/10/24 05:10:59;;;;;;;11.73;7.43;;;;;;;;;;5073077;28;20364;-78
2021/10/24 05:13:26;;;;;;;9.27;7.00;;;;;;;;;;5073072;28;20024;-77
2021/10/24 05:15:52;;;;;;;10.48;6.75;;;;;;;;;;5072916;28;20537;-79
2021/10/24 05:18:20;;;;;;;8.60;6.82;;;;;;;;;;5073078;28;20049;-77
2021/10/24 05:20:46;;;;;;;7.90;6.78;;;;;;;;;;5072723;28;20049;-78
2021/10/24 05:23:12;;;;;;;8.20;4.85;;;;;;;;;;5073001;28;20020;-77
2021/10/24 05:25:38;;;;;;;10.55;7.40;;;;;;;;;;5071469;28;20021;-76
2021/10/24 05:28:07;;;;;;;11.30;7.80;;;;;;;;;;5073001;28;20024;-76
2021/10/24 05:30:33;;;;;;;11.52;8.15;;;;;;;;;;5072678;28;20039;-80
2021/10/24 05:33:01;;;;;;;10.02;7.75;;;;;;;;;;5075667;28;20470;-79
2021/10/24 05:35:27;;;;;;;9.38;7.95;;;;;;;;;;5076567;28;20021;-80
2021/10/24 05:37:56;;;;;;;9.98;7.47;;;;;;;;;;5076544;28;20029;-76
2021/10/24 05:40:24;;;;;;;9.15;7.43;;;;;;;;;;5076430;28;20502;-78
2021/10/24 05:42:53;;;;;;;13.05;8.45;;;;;;;;;;5076380;28;20025;-78
2021/10/24 05:45:21;;;;;;;10.98;8.68;;;;;;;;;;5075014;28;20021;-79
2021/10/24 05:47:47;;;;;;;9.88;7.90;;;;;;;;;;5076327;28;20020;-81
2021/10/24 05:50:13;;;;;;;12.95;9.70;;;;;;;;;;5076238;28;20016;-83
2021/10/24 05:52:39;;;;;;;10.98;7.55;;;;;;;;;;5076261;28;20077;-76
2021/10/24 05:55:06;;;;;;;11.23;7.18;;;;;;;;;;5076157;28;20099;-78
2021/10/24 05:57:32;;;;;;;14.77;10.70;;;;;;;;;;5076114;28;20520;-77
2021/10/24 05:59:58;;;;;;;18.95;12.85;;;;;;;;;;5076177;28;20036;-79
2021/10/24 06:02:24;;;;;;;18.00;9.55;;;;;;;;;;5076045;28;20110;-77
2021/10/24 06:04:50;;;;;;;12.65;9.50;;;;;;;;;;5075874;28;20027;-81
2021/10/24 06:07:17;;;;;;;15.02;10.45;;;;;;;;;;5075993;28;20044;-78
2021/10/24 06:12:28;;;;;;;11.13;8.98;;;;;;;;;;5075890;28;20177;-77
2021/10/24 06:14:55;;;;;;;11.38;8.88;;;;;;;;;;5075918;28;20021;-75
2021/10/24 06:17:21;;;;;;;10.05;6.78;;;;;;;;;;5075672;28;20036;-79
2021/10/24 06:19:47;;;;;;;9.25;7.47;;;;;;;;;;5075598;28;20074;-78
2021/10/24 06:22:15;;;;;;;10.57;7.82;;;;;;;;;;5075622;28;20028;-78
2021/10/24 06:24:41;;;;;;;12.25;7.65;;;;;;;;;;5075556;28;20029;-74
2021/10/24 06:27:07;;;;;;;11.20;8.25;;;;;;;;;;5075591;28;20032;-79
2021/10/24 06:29:34;;;;;;;11.35;8.55;;;;;;;;;;5075656;28;20437;-74
2021/10/24 06:32:00;;;;;;;12.07;6.93;;;;;;;;;;5075460;28;20020;-75
2021/10/24 06:34:26;;;;;;;12.52;8.02;;;;;;;;;;5075324;28;20046;-80
2021/10/24 06:36:52;;;;;;;12.02;8.45;;;;;;;;;;5075568;28;20033;-78
2021/10/24 06:39:18;;;;;;;10.35;8.07;;;;;;;;;;5075430;28;20047;-76
2021/10/24 06:41:45;;;;;;;11.20;8.65;;;;;;;;;;5075379;28;20063;-75
2021/10/24 06:44:11;;;;;;;10.35;7.75;;;;;;;;;;5072788;28;20426;-78
2021/10/24 06:46:37;;;;;;;10.07;6.85;;;;;;;;;;5075212;28;20024;-75
2021/10/24 06:49:03;;;;;;;10.20;7.20;;;;;;;;;;5073874;28;20021;-75
2021/10/24 06:51:29;;;;;;;11.27;7.85;;;;;;;;;;5075010;28;20392;-75
2021/10/24 06:53:55;;;;;;;8.40;7.00;;;;;;;;;;5075009;28;20017;-75
2021/10/24 06:56:21;;;;;;;12.43;8.10;;;;;;;;;;5075098;28;20034;-76
2021/10/24 06:58:47;;;;;;;8.73;6.63;;;;;;;;;;5075012;28;20492;-78
2021/10/24 07:01:14;;;;;;;12.85;9.13;;;;;;;;;;5074859;28;20092;-77
2021/10/24 07:03:42;;;;;;;15.65;8.52;;;;;;;;;;5074845;28;20028;-76
2021/10/24 07:06:08;;;;;;;11.23;7.78;;;;;;;;;;5074859;28;20025;-77
2021/10/24 07:08:34;;;;;;;11.10;7.28;;;;;;;;;;5074763;28;20028;-76
2021/10/24 07:11:01;;;;;;;9.32;6.38;;;;;;;;;;5074798;28;20036;-77
2021/10/24 07:13:27;;;;;;;12.00;7.82;;;;;;;;;;5074702;28;20025;-79
2021/10/24 07:15:53;;;;;;;10.98;7.28;;;;;;;;;;5074405;28;20976;-75
2021/10/24 07:18:20;;;;;;;13.30;6.45;;;;;;;;;;5074552;28;20029;-76
2021/10/24 07:20:46;;;;;;;7.55;6.15;;;;;;;;;;5074406;28;20120;-78
2021/10/24 07:23:12;;;;;;;13.90;7.65;;;;;;;;;;5074582;28;20055;-73
2021/10/24 07:25:38;;;;;;;10.02;6.05;;;;;;;;;;5074216;28;20431;-79
2021/10/24 07:28:10;;;;;;;10.73;7.32;;;;;;;;;;5074389;28;20406;-77
2021/10/24 07:30:39;;;;;;;13.68;8.73;;;;;;;;;;5074431;28;20016;-81
2021/10/24 07:33:08;;;;;;;11.00;7.47;;;;;;;;;;5074324;28;20024;-79
2021/10/24 07:35:36;;;;;;;9.60;7.10;;;;;;;;;;5074296;28;20052;-79
2021/10/24 07:38:21;;;;;;;10.48;6.50;;;;;;;;;;5074242;28;20107;-81
2021/10/24 07:40:49;;;;;;;9.55;7.40;;;;;;;;;;5072997;28;20112;-76
2021/10/24 07:43:25;;;;;;;8.27;5.47;;;;;;;;;;5074088;28;20467;-75
2021/10/24 07:45:51;;;;;;;7.22;4.65;;;;;;;;;;5074073;28;20024;-77
2021/10/24 07:48:19;;;;;;;8.90;4.53;;;;;;;;;;5073914;28;20092;-76
2021/10/24 07:50:46;;;;;;;7.13;5.35;;;;;;;;;;5074070;28;20035;-78
2021/10/24 07:53:15;;;;;;;7.40;5.63;;;;;;;;;;5073935;28;20096;-78
2021/10/24 07:55:42;;;;;;;7.07;5.50;;;;;;;;;;5073723;28;20035;-79
2021/10/24 07:58:09;;;;;;;9.57;6.07;;;;;;;;;;5072503;28;20037;-78
2021/10/24 08:00:37;;;;;;;10.98;4.50;;;;;;;;;;5073799;28;20028;-79
2021/10/24 08:03:22;;;;;;;7.45;5.20;;;;;;;;;;5073910;28;20028;-79
2021/10/24 08:05:48;;;;;;;13.95;5.68;;;;;;;;;;5073518;28;20024;-74
2021/10/24 08:08:14;;;;;;;7.57;4.65;;;;;;;;;;5073754;28;20372;-80
2021/10/24 08:10:40;;;;;;;7.68;4.43;;;;;;;;;;5073818;28;20028;-79
2021/10/24 08:13:06;;;;;;;8.70;5.72;;;;;;;;;;5072341;28;20024;-81
2021/10/24 08:15:33;;;;;;;6.82;4.22;;;;;;;;;;5073619;28;20107;-74
2021/10/24 08:17:59;;;;;;;7.43;4.80;;;;;;;;;;5073592;28;20036;-77
2021/10/24 08:20:25;;;;;;;10.85;6.18;;;;;;;;;;5073330;28;20129;-78
2021/10/24 08:22:51;;;;;;;10.65;8.00;;;;;;;;;;5073641;28;20032;-74
2021/10/24 08:25:17;;;;;;;9.18;5.85;;;;;;;;;;5073472;28;20541;-80
2021/10/24 08:27:44;;;;;;;10.75;6.45;;;;;;;;;;5073547;28;20047;-77
2021/10/24 08:30:10;;;;;;;8.23;5.45;;;;;;;;;;5073476;28;20380;-80
2021/10/24 08:32:37;;;;;;;9.98;6.60;;;;;;;;;;5073498;28;20020;-77
2021/10/24 08:35:05;;;;;;;9.27;5.95;;;;;;;;;;5073428;28;20028;-75
2021/10/24 08:37:31;;;;;;;8.13;4.68;;;;;;;;;;5073614;28;20441;-75
2021/10/24 08:39:57;;;;;;;9.75;5.88;;;;;;;;;;5073428;28;20043;-74
2021/10/24 08:42:31;;;;;;;8.70;6.65;;;;;;;;;;5073321;28;20111;-74
2021/10/24 08:44:58;;;;;;;9.07;5.90;;;;;;;;;;5073297;28;20091;-75
2021/10/24 08:47:25;;;;;;;8.98;6.30;;;;;;;;;;5073131;28;20049;-76
2021/10/24 08:49:52;;;;;;;8.25;5.18;;;;;;;;;;5073265;28;20456;-82
2021/10/24 08:52:19;;;;;;;8.38;5.05;;;;;;;;;;5073548;28;20472;-79
2021/10/24 08:54:45;;;;;;;7.38;5.10;;;;;;;;;;5073218;28;20028;-78
2021/10/24 08:57:11;;;;;;;9.00;5.93;;;;;;;;;;5073138;28;20020;-77
2021/10/24 08:59:40;;;;;;;8.80;5.63;;;;;;;;;;5073111;28;20033;-74
2021/10/24 09:02:07;;;;;;;8.48;6.53;;;;;;;;;;5073042;28;20033;-80
2021/10/24 09:04:33;;;;;;;8.27;6.22;;;;;;;;;;5072928;28;20028;-76
2021/10/24 09:07:00;;;;;;;8.63;5.55;;;;;;;;;;5073136;28;20024;-80
2021/10/24 09:09:31;;;;;;;6.88;5.88;;;;;;;;;;5077153;28;20021;-79
2021/10/24 09:12:01;;;;;;;10.27;6.82;;;;;;;;;;5076960;28;20048;-79
2021/10/24 09:14:46;;;;;;;7.88;6.25;;;;;;;;;;5075635;28;20039;-76
2021/10/24 09:17:18;;;;;;;8.75;5.47;;;;;;;;;;5076833;28;20031;-79
2021/10/24 09:19:45;;;;;;;8.63;5.78;;;;;;;;;;5076774;28;20049;-78
2021/10/24 09:22:13;;;;;;;10.98;6.88;;;;;;;;;;5076810;28;20052;-77
2021/10/24 09:24:39;;;;;;;9.13;6.07;;;;;;;;;;5076866;28;20116;-78
2021/10/24 09:27:14;;;;;;;6.65;4.80;;;;;;;;;;5076813;28;20023;-78
2021/10/24 09:29:48;;;;;;;10.05;6.03;;;;;;;;;;5076631;28;20021;-77
2021/10/24 09:32:16;;;;;;;9.63;6.38;;;;;;;;;;5076698;28;20082;-82
2021/10/24 09:34:42;;;;;;;11.38;5.93;;;;;;;;;;5076646;28;20048;-78
2021/10/24 09:37:09;;;;;;;14.48;7.22;;;;;;;;;;5076583;28;20059;-76
2021/10/24 09:39:36;;;;;;;9.85;6.93;;;;;;;;;;5075175;28;20082;-79
2021/10/24 09:42:16;;;;;;;8.57;6.65;;;;;;;;;;5076556;28;20195;-80
2021/10/24 09:45:01;;;;;;;11.40;7.65;;;;;;;;;;5076398;28;20120;-78
2021/10/24 09:47:27;;;;;;;;;;;;;;;;;;5076805;28;20021;-77
2021/10/24 09:49:53;;;;;;;8.10;4.93;;;;;;;;;;5076328;28;19949;-78
2021/10/24 09:52:38;;;;;;;6.93;6.10;;;;;;;;;;5076265;28;20017;-78
2021/10/24 09:55:04;;;;;;;11.23;7.28;;;;;;;;;;5076327;28;20024;-79
2021/10/24 09:57:31;;;;;;;9.43;6.97;;;;;;;;;;5076264;28;20106;-80
2021/10/24 10:00:00;;;;;;;6.78;5.43;;;;;;;;;;5076208;28;20028;-79
2021/10/24 10:02:26;;;;;;;9.27;6.05;;;;;;;;;;5076143;28;20044;-78
2021/10/24 10:04:52;;;;;;;9.57;5.20;;;;;;;;;;5075905;28;20029;-79
2021/10/24 10:07:18;;;;;;;7.82;6.47;;;;;;;;;;5075990;28;20044;-81
2021/10/24 10:09:48;;;;;;;9.60;5.60;;;;;;;;;;5075949;28;20021;-76
2021/10/24 10:12:18;;;;;;;6.15;5.15;;;;;;;;;;5074619;28;20539;-79
2021/10/24 10:14:45;;;;;;;7.70;4.47;;;;;;;;;;5075858;28;20498;-77
2021/10/24 10:17:13;;;;;;;5.03;3.85;;;;;;;;;;5075755;28;20381;-77
2021/10/24 10:19:41;;;;;;;6.95;5.05;;;;;;;;;;5075550;28;20499;-80
2021/10/24 10:22:26;;;;;;;7.28;4.93;;;;;;;;;;5075678;28;20070;-80
2021/10/24 10:25:03;;;;;;;9.05;5.47;;;;;;;;;;5075624;28;20021;-77
2021/10/24 10:27:35;;;;;;;8.52;4.82;;;;;;;;;;5075538;28;20056;-77
2021/10/24 10:30:09;;;;;;;6.47;4.10;;;;;;;;;;5075510;28;20017;-79
2021/10/24 10:32:40;;;;;;;6.10;5.22;;;;;;;;;;5074371;28;20379;-77
2021/10/24 10:35:08;;;;;;;5.97;3.95;;;;;;;;;;5075254;28;20107;-79
2021/10/24 10:37:51;;;;;;;6.07;3.90;;;;;;;;;;5074068;28;20030;-78
2021/10/24 10:40:18;;;;;;;5.15;3.30;;;;;;;;;;5074099;28;20368;-81
2021/10/24 10:42:45;;;;;;;5.85;3.42;;;;;;;;;;5075364;28;20021;-77
2021/10/24 10:45:14;;;;;;;6.82;4.07;;;;;;;;;;5075119;28;20021;-78
2021/10/24 10:47:50;;;;;;;6.93;4.15;;;;;;;;;;5075144;28;20056;-77
2021/10/24 10:53:17;;;;;;;7.68;4.75;;;;;;;;;;5075068;28;20019;-76
2021/10/24 10:56:02;;;;;;;5.75;3.90;;;;;;;;;;5075012;28;20024;-79
2021/10/24 10:58:28;;;;;;;7.10;5.10;;;;;;;;;;5074985;28;20099;-78
2021/10/24 11:01:13;;;;;;;5.47;4.30;;;;;;;;;;5074998;28;20029;-75
2021/10/24 11:03:39;;;;;;;;;;;;;;;;;;5073773;28;20543;-79
2021/10/24 11:06:05;;;;;;;6.72;4.03;;;;;;;;;;5073367;28;20014;-77
2021/10/24 11:08:48;;;;;;;11.20;5.95;;;;;;;;;;5074832;28;20029;-80
2021/10/24 11:11:14;;;;;;;5.57;3.42;;;;;;;;;;5074711;28;20025;-79
2021/10/24 11:13:42;;;;;;;6.05;4.00;;;;;;;;;;5074805;28;20137;-80
2021/10/24 11:16:34;;;;;;;9.63;5.47;;;;;;;;;;5073370;28;20078;-80
2021/10/24 11:19:05;;;;;;;8.13;5.22;;;;;;;;;;5058399;28;20041;-79
2021/10/24 11:21:31;;;;;;;9.25;5.35;;;;;;;;;;5074529;28;20021;-79
2021/10/24 11:24:15;;;;;;;6.38;3.38;;;;;;;;;;5074478;28;20020;-80
2021/10/24 11:26:42;;;;;;;4.30;3.10;;;;;;;;;;5074480;28;20028;-78
2021/10/24 11:29:08;;;;;;;5.50;3.42;;;;;;;;;;5073858;28;20086;-78
2021/10/24 11:31:35;;;;;;;9.48;5.07;;;;;;;;;;5074512;28;20048;-77
2021/10/24 11:34:01;;;;;;;7.20;4.15;;;;;;;;;;5074195;28;20024;-78
2021/10/24 11:36:31;;;;;;;7.60;4.72;;;;;;;;;;5074307;28;20044;-78
2021/10/24 11:38:58;;;;;;;5.78;3.70;;;;;;;;;;5074249;28;20066;-78
2021/10/24 11:41:25;;;;;;;8.07;5.63;;;;;;;;;;5074243;28;20384;-80
2021/10/24 11:43:54;;;;;;;8.60;5.82;;;;;;;;;;5074014;28;20379;-79
2021/10/24 11:46:20;;;;;;;8.25;5.35;;;;;;;;;;5074215;28;20052;-77
2021/10/24 11:48:54;;;;;;;9.15;6.07;;;;;;;;;;5073982;28;20028;-79
2021/10/24 11:51:20;;;;;;;11.00;7.05;;;;;;;;;;5072723;28;20021;-79
2021/10/24 11:53:48;;;;;;;7.45;4.47;;;;;;;;;;5074066;28;20373;-80
2021/10/24 11:57:16;;;;;;;8.02;5.82;;;;;;;;;;5073867;28;20025;-76
2021/10/24 12:02:14;;;;;;;10.07;6.00;;;;;;;;;;5051850;28;20593;-81
2021/10/24 12:04:40;;;;;;;6.53;3.97;;;;;;;;;;5064056;28;20040;-78
2021/10/24 12:07:07;;;;;;;6.85;4.32;;;;;;;;;;5073774;28;20021;-76
2021/10/24 12:09:42;;;;;;;7.38;3.80;;;;;;;;;;5073692;28;20074;-81
2021/10/24 12:12:10;;;;;;;7.25;3.95;;;;;;;;;;5073708;28;20024;-77
2021/10/24 12:14:55;;;;;;;7.38;4.95;;;;;;;;;;5073699;28;20048;-80
2021/10/24 12:17:21;;;;;;;;;;;;;;;;;;5072788;28;20553;-78
2021/10/24 12:19:50;;;;;;;9.32;4.82;;;;;;;;;;5073361;28;19916;-78
2021/10/24 12:22:19;;;;;;;7.22;4.00;;;;;;;;;;5073689;28;20024;-77
2021/10/24 12:24:45;;;;;;;6.78;3.63;;;;;;;;;;5072166;28;20025;-78
2021/10/24 12:27:17;;;;;;;5.72;2.97;;;;;;;;;;5073507;28;20058;-79
2021/10/24 12:29:54;;;;;;;10.00;5.40;;;;;;;;;;5073578;28;20021;-78
2021/10/24 12:32:20;;;;;;;5.43;3.47;;;;;;;;;;5073366;28;20027;-78
2021/10/24 12:35:22;;;;;;;8.50;5.88;;;;;;;;;;5073504;28;20127;-77
2021/10/24 12:38:01;;;;;;;5.97;3.78;;;;;;;;;;5014842;28;20029;-77
2021/10/24 12:40:33;;;;;;;8.27;4.72;;;;;;;;;;5031061;28;20200;-81
2021/10/24 12:43:03;;;;;;;8.77;4.13;;;;;;;;;;5014253;28;20103;-78
2021/10/24 12:45:29;;;;;;;7.07;4.18;;;;;;;;;;5043852;28;20040;-76
2021/10/24 12:47:56;;;;;;;5.13;3.15;;;;;;;;;;5073228;28;20487;-78
2021/10/24 12:50:32;;;;;;;5.43;2.67;;;;;;;;;;5073323;28;20472;-82
2021/10/24 12:53:11;;;;;;;7.82;3.63;;;;;;;;;;5073216;28;20035;-79
2021/10/24 12:55:37;;;;;;;6.57;4.32;;;;;;;;;;5073137;28;20021;-81
2021/10/24 12:58:04;;;;;;;8.05;4.63;;;;;;;;;;5073128;28;20487;-78
2021/10/24 13:00:31;;;;;;;6.22;3.45;;;;;;;;;;5073280;28;20025;-75
2021/10/24 13:02:57;;;;;;;7.90;3.50;;;;;;;;;;5073161;28;20028;-76
2021/10/24 13:05:24;;;;;;;4.13;2.65;;;;;;;;;;5073149;28;20029;-78
2021/10/24 13:07:51;;;;;;;3.42;1.95;;;;;;;;;;5073043;28;20062;-78
2021/10/24 13:10:17;;;;;;;4.75;3.17;;;;;;;;;;5071827;28;20025;-78
2021/10/24 13:12:43;;;;;;;6.65;3.22;;;;;;;;;;5073121;28;20032;-80
2021/10/24 13:15:09;;;;;;;6.90;3.88;;;;;;;;;;5072983;28;20449;-76
2021/10/24 13:17:35;;;;;;;9.10;5.93;;;;;;;;;;5072896;28;20048;-77
2021/10/24 13:20:01;;;;;;;7.55;4.35;;;;;;;;;;5072610;28;20060;-79
2021/10/24 13:25:12;;;;;;;;;;;;;;;;;;5073412;28;20090;-75
2021/10/24 13:27:38;;;;;;;7.72;4.72;;;;;;;;;;5072910;28;19904;-78
2021/10/24 13:30:05;;;;;;;7.78;5.10;;;;;;;;;;5072808;28;20028;-79
2021/10/24 13:32:31;;;;;;;5.68;3.08;;;;;;;;;;5072898;28;20020;-77
2021/10/24 13:34:57;;;;;;;9.85;5.90;;;;;;;;;;5072763;28;20033;-79
2021/10/24 13:37:33;;;;;;;5.82;3.90;;;;;;;;;;5071532;28;20387;-78
2021/10/24 13:39:59;;;;;;;18.05;11.55;;;;;;;;;;5072890;28;20103;-79
2021/10/24 13:42:25;;;;;;;9.02;6.90;;;;;;;;;;5072794;28;20029;-78
2021/10/24 13:44:52;;;;;;;5.43;3.75;;;;;;;;;;5072683;28;20071;-79
2021/10/24 13:47:19;;;;;;;7.10;4.22;;;;;;;;;;5072703;28;20017;-80
2021/10/24 13:49:45;;;;;;;8.43;4.57;;;;;;;;;;5072681;28;20023;-79
2021/10/24 13:52:11;;;;;;;8.43;4.68;;;;;;;;;;5072768;28;20025;-77
2021/10/24 13:54:47;;;;;;;6.93;4.70;;;;;;;;;;5076276;28;20403;-79
2021/10/24 13:57:13;;;;;;;7.45;4.05;;;;;;;;;;5076091;28;20025;-79
2021/10/24 13:59:40;;;;;;;7.93;4.10;;;;;;;;;;5076197;28;20496;-77
2021/10/24 14:02:07;;;;;;;6.20;3.67;;;;;;;;;;5076145;28;20107;-80
2021/10/24 14:04:34;;;;;;;6.20;3.95;;;;;;;;;;5076032;28;20017;-80
2021/10/24 14:07:00;;;;;;;8.27;4.07;;;;;;;;;;5076064;28;20100;-79
2021/10/24 14:09:31;;;;;;;10.57;6.63;;;;;;;;;;5075930;28;20020;-79
2021/10/24 14:11:58;;;;;;;7.97;5.00;;;;;;;;;;5075941;28;20039;-76
2021/10/24 14:14:24;;;;;;;8.23;4.90;;;;;;;;;;5075718;28;20017;-78
2021/10/24 14:16:51;;;;;;;8.35;4.00;;;;;;;;;;5075828;28;20077;-78
2021/10/24 14:19:17;;;;;;;7.68;4.72;;;;;;;;;;5075692;28;20052;-77
2021/10/24 14:21:43;;;;;;;8.50;5.80;;;;;;;;;;5075773;28;20024;-76
2021/10/24 14:24:14;;;;;;;5.95;4.20;;;;;;;;;;5075584;28;20127;-75
2021/10/24 14:26:42;;;;;;;7.70;5.47;;;;;;;;;;5075540;28;20158;-78
2021/10/24 14:29:09;;;;;;;6.03;4.97;;;;;;;;;;5075562;28;20380;-78
2021/10/24 14:31:35;;;;;;;6.47;3.70;;;;;;;;;;5075559;28;20415;-77
2021/10/24 14:34:01;;;;;;;8.10;5.35;;;;;;;;;;5074235;28;20031;-79
2021/10/24 14:36:27;;;;;;;8.20;5.53;;;;;;;;;;5074172;28;20032;-78
2021/10/24 14:38:54;;;;;;;6.90;5.18;;;;;;;;;;5075479;28;20063;-76
2021/10/24 14:41:21;;;;;;;7.65;4.32;;;;;;;;;;5075394;28;20112;-80
2021/10/24 14:43:48;;;;;;;9.88;6.45;;;;;;;;;;5077796;28;20064;-79
2021/10/24 14:46:16;;;;;;;8.82;4.45;;;;;;;;;;5082174;28;20031;-79
2021/10/24 14:48:42;;;;;;;9.65;5.65;;;;;;;;;;5091169;28;20060;-79
2021/10/24 14:51:11;;;;;;;8.98;4.65;;;;;;;;;;5095374;28;20379;-79
2021/10/24 14:53:37;;;;;;;9.00;5.60;;;;;;;;;;5095366;28;20478;-79
2021/10/24 14:56:03;;;;;;;8.35;5.75;;;;;;;;;;5095275;28;20032;-79
2021/10/24 14:58:30;;;;;;;9.57;6.45;;;;;;;;;;5095291;28;20024;-79
2021/10/24 15:00:57;;;;;;;9.98;6.15;;;;;;;;;;5095235;28;20065;-80
2021/10/24 15:03:23;;;;;;;9.60;7.13;;;;;;;;;;5095292;28;20031;-80